Latest Weather Observations for Evans Head

IDN60801

Issued at 2:35 pm EDT Tuesday 21 October 2014 (issued every 30 minutes, with the page automatically refreshed every 10 minutes)

About weather observations | Map of weather stations | Latest weather observations for NSW | Other Formats
Station Details ID: 058212 Name: EVANS HEAD RAAF BOMBING RANGE AWS Lat: -29.18 Lon: 153.40 Height: 62.5 m
Data from the previous 72 hours. | See also: Recent months at Evans Head
Date/Time
EDT
Temp
°C
App
Temp
°C
Dew
Point
Rel
Hum
%
Delta-T
°C
Wind Press
QNH
hPa
Press
MSL
hPa
Rain
since 9 am
mm
Dir
 
Spd
km/h
Gust
km/h
Spd
kts
Gust
kts
21/02:31pm 20.9 14.4 15.0 69 3.5 S 43 61 23 33 1027.6 1027.5 0.0
21/02:30pm 21.2 14.8 15.3 69 3.5 S 43 57 23 31 1027.6 1027.5 0.0
21/02:00pm 21.4 15.2 14.8 66 3.9 S 41 56 22 30 1027.9 1027.8 0.0
21/01:30pm 19.7 13.2 13.9 69 3.3 S 41 54 22 29 1028.1 1028.0 0.0
21/01:12pm 20.7 15.8 15.3 71 3.2 S 35 54 19 29 1028.3 1028.2 0.0
21/01:00pm 20.6 15.4 14.5 68 3.5 S 35 48 19 26 1028.4 1028.3 0.0
21/12:30pm 19.8 13.9 14.8 73 2.9 S 39 54 21 29 1028.8 1028.7 0.0
21/12:00pm 18.7 13.8 13.6 72 2.9 S 32 46 17 25 1029.0 1028.9 0.0
21/11:30am 17.7 12.5 14.4 81 1.9 S 35 50 19 27 1029.1 1029.0 0.0
21/11:00am 17.8 13.2 15.1 84 1.6 S 33 48 18 26 1029.2 1029.1 0.0
21/10:36am 18.3 13.7 14.6 79 2.1 S 32 50 17 27 1029.2 1029.1 0.0
21/10:30am 18.0 13.7 15.4 85 1.5 S 32 43 17 23 1029.2 1029.1 0.0
21/10:20am 18.0 14.9 16.5 91 0.9 S 28 46 15 25 1029.3 1029.2 0.0
21/10:00am 19.5 15.8 15.0 75 2.6 SSW 28 41 15 22 1029.0 1028.9 0.0
21/09:30am 19.1 14.8 15.8 81 2.0 S 33 46 18 25 1029.0 1028.9 0.0
21/09:00am 18.3 12.8 15.7 85 1.5 S 39 54 21 29 1028.6 1028.5 0.6
21/08:49am 18.2 14.0 15.6 85 1.5 S 32 54 17 29 1028.5 1028.4 0.6
21/08:30am 18.3 14.1 15.7 85 1.5 S 32 44 17 24 1028.3 1028.2 0.6
21/08:00am 18.1 14.7 15.7 86 1.4 S 28 41 15 22 1028.0 1027.9 0.6
21/07:30am 17.9 14.7 16.2 90 1.0 S 28 39 15 21 1027.7 1027.6 0.6
21/07:00am 17.3 16.1 16.2 93 0.6 SSW 17 28 9 15 1027.6 1027.5 0.6
21/06:30am 17.2 15.6 16.4 95 0.5 SSW 20 30 11 16 1027.3 1027.2 0.6
21/06:00am 17.4 15.2 16.8 96 0.4 S 24 41 13 22 1027.0 1026.8 0.6
21/05:30am 18.1 15.3 16.4 90 1.0 S 26 35 14 19 1026.5 1026.3 0.6
21/05:00am 18.8 14.3 14.9 78 2.3 SSE 32 44 17 24 1026.2 1026.0 0.6
21/04:30am 18.2 15.2 16.9 92 0.8 S 28 43 15 23 1026.3 1026.1 0.6
21/04:00am 17.5 15.8 17.2 98 0.2 SSW 22 32 12 17 1026.4 1026.2 0.6
21/03:30am 17.3 15.5 17.0 98 0.2 SSW 22 33 12 18 1026.3 1026.1 0.6
21/03:00am 17.3 14.8 17.0 98 0.2 SSW 26 37 14 20 1026.6 1026.4 0.6
21/02:30am 17.7 15.7 17.4 98 0.2 SSW 24 35 13 19 1026.6 1026.4 0.4
21/02:00am 17.8 16.6 17.5 98 0.2 SSW 20 32 11 17 1026.8 1026.6 0.2
21/01:30am 18.0 15.7 17.7 98 0.2 S 26 39 14 21 1026.7 1026.5 0.2
21/01:00am 18.2 15.6 17.9 98 0.2 S 28 43 15 23 1026.9 1026.7 0.2
21/12:30am 18.1 15.1 17.8 98 0.2 S 30 46 16 25 1027.1 1026.9 0.2
21/12:14am 18.0 14.6 17.7 98 0.2 S 32 50 17 27 1027.2 1027.1 0.2
21/12:00am 18.1 14.5 17.6 97 0.3 S 33 46 18 25 1027.4 1027.3 0.2
 
Date/Time
EDT
Temp
°C
App
Temp
°C
Dew
Point
Rel
Hum
%
Delta-T
°C
Wind Press
QNH
hPa
Press
MSL
hPa
Rain
since 9 am
mm
Dir
 
Spd
km/h
Gust
km/h
Spd
kts
Gust
kts
20/11:47pm 18.5 15.2 18.0 97 0.3 S 32 50 17 27 1027.4 1027.3 0.0
20/11:30pm 18.7 15.4 17.9 95 0.5 S 32 48 17 26 1027.4 1027.3 0.0
20/11:28pm 18.7 15.2 17.9 95 0.5 S 33 52 18 28 1027.4 1027.3 0.0
20/11:00pm 18.1 15.8 17.6 97 0.3 S 26 39 14 21 1027.5 1027.4 0.0
20/10:30pm 19.1 15.7 16.7 86 1.4 S 30 48 16 26 1027.5 1027.4 0.0
20/10:01pm 19.0 14.3 17.7 92 0.8 S 39 57 21 31 1027.4 1027.3 0.0
20/10:00pm 19.0 14.8 18.0 94 0.6 S 37 50 20 27 1027.4 1027.3 0.0
20/09:30pm 18.7 15.4 18.0 96 0.4 S 32 43 17 23 1027.5 1027.4 0.0
20/09:02pm 19.3 15.3 17.6 90 1.0 S 35 54 19 29 1027.1 1026.9 0.0
20/09:00pm 19.3 14.8 17.4 89 1.2 S 37 54 20 29 1027.1 1026.9 0.0
20/08:30pm 19.4 14.5 17.2 87 1.3 S 39 59 21 32 1026.4 1026.2 0.0
20/08:00pm 19.4 14.0 17.0 86 1.5 S 41 59 22 32 1026.2 1026.0 0.0
20/07:30pm 19.4 13.7 17.2 87 1.3 S 43 63 23 34 1025.8 1025.6 0.0
20/07:00pm 19.6 13.9 17.2 86 1.5 S 43 61 23 33 1025.3 1025.1 0.0
20/06:31pm 20.0 14.3 17.2 84 1.7 S 43 63 23 34 1025.0 1024.8 0.0
20/06:30pm 20.0 14.7 17.2 84 1.7 S 41 57 22 31 1025.0 1024.8 0.0
20/06:00pm 20.3 15.7 17.1 82 1.9 S 37 57 20 31 1024.8 1024.6 0.0
20/05:55pm 20.6 17.3 16.0 75 2.8 S 28 50 15 27 1024.9 1024.7 0.0
20/05:30pm 20.7 17.0 13.9 65 3.9 S 26 35 14 19 1024.6 1024.4 0.0
20/05:00pm 22.2 20.0 14.8 63 4.4 S 20 30 11 16 1024.3 1024.1 0.0
20/04:30pm 22.6 20.9 14.7 61 4.7 S 17 24 9 13 1024.1 1023.9 0.0
20/04:00pm 22.9 21.8 14.2 58 5.1 SE 13 19 7 10 1023.7 1023.5 0.0
20/03:30pm 23.4 22.1 14.9 59 5.1 E 15 22 8 12 1023.4 1023.2 0.0
20/03:00pm 23.4 21.2 14.4 57 5.3 E 19 26 10 14 1023.4 1023.2 0.0
20/02:30pm 24.3 22.9 14.4 54 5.9 NE 15 24 8 13 1023.3 1023.1 0.0
20/02:00pm 23.7 21.2 14.1 55 5.6 ENE 20 28 11 15 1023.6 1023.4 0.0
20/01:30pm 24.5 22.7 15.4 57 5.5 ENE 19 26 10 14 1023.7 1023.5 0.0
20/01:00pm 23.5 20.9 13.9 55 5.6 ENE 20 28 11 15 1023.9 1023.7 0.0
20/12:30pm 23.3 20.5 14.3 57 5.3 E 22 30 12 16 1024.1 1023.9 0.0
20/12:00pm 23.1 20.3 14.4 58 5.1 E 22 30 12 16 1024.2 1024.0 0.0
20/11:30am 24.0 21.5 13.5 52 6.1 ENE 19 22 10 12 1024.5 1024.3 0.0
20/11:00am 25.2 23.7 13.1 47 7.0 N 13 19 7 10 1024.7 1024.5 0.0
20/10:30am 24.3 22.9 13.5 51 6.3 N 13 20 7 11 1024.8 1024.6 0.0
20/10:00am 24.0 22.9 14.4 55 5.7 NNW 13 22 7 12 1025.0 1024.8 0.0
20/09:30am 22.0 21.4 13.6 59 4.9 N 9 13 5 7 1025.0 1024.8 0.0
20/09:00am 20.6 19.1 13.1 62 4.3 N 13 19 7 10 1025.1 1024.9 0.0
20/08:30am 18.9 18.2 13.3 70 3.2 N 9 13 5 7 1025.1 1024.9 0.0
20/08:00am 17.1 17.0 14.0 82 1.8 N 7 13 4 7 1025.0 1024.8 0.0
20/07:30am 14.5 14.1 14.0 97 0.3 NNW 9 13 5 7 1024.7 1024.5 0.0
20/07:00am 12.5 11.4 12.0 97 0.3 NNW 9 13 5 7 1024.6 1024.4 0.0
20/06:30am 11.8 10.1 11.3 97 0.3 NNW 11 19 6 10 1024.5 1024.3 0.0
20/06:00am 11.8 9.7 11.3 97 0.3 NNW 13 15 7 8 1024.4 1024.2 0.0
20/05:30am 11.7 10.0 11.2 97 0.3 NNW 11 15 6 8 1024.2 1024.0 0.0
20/05:00am 12.5 11.4 12.0 97 0.3 N 9 11 5 6 1024.2 1024.0 0.0
20/04:30am 13.2 12.2 12.3 94 0.5 NNW 9 11 5 6 1024.3 1024.1 0.0
20/04:00am 13.7 12.9 12.8 94 0.5 NNW 9 13 5 7 1024.2 1024.0 0.0
20/03:30am 13.8 13.0 12.9 94 0.5 NNW 9 11 5 6 1024.5 1024.3 0.0
20/03:00am 13.9 13.0 12.6 92 0.7 N 9 13 5 7 1024.5 1024.3 0.0
20/02:30am 14.3 13.5 12.9 91 0.8 N 9 11 5 6 1024.8 1024.6 0.0
20/02:00am 14.5 13.7 12.9 90 0.9 NNW 9 9 5 5 1025.3 1025.1 0.0
20/01:30am 14.6 13.8 12.8 89 1.0 NNW 9 11 5 6 1025.6 1025.4 0.0
20/01:00am 14.7 13.8 12.6 87 1.1 NNW 9 9 5 5 1026.1 1025.9 0.0
20/12:30am 14.8 13.7 12.1 84 1.5 NNW 9 9 5 5 1026.4 1026.2 0.0
20/12:00am 15.1 14.0 11.9 81 1.7 NNW 9 9 5 5 1026.6 1026.4 0.0
 
Date/Time
EDT
Temp
°C
App
Temp
°C
Dew
Point
Rel
Hum
%
Delta-T
°C
Wind Press
QNH
hPa
Press
MSL
hPa
Rain
since 9 am
mm
Dir
 
Spd
km/h
Gust
km/h
Spd
kts
Gust
kts
19/11:30pm 15.5 14.3 11.7 78 2.1 N 9 9 5 5 1026.7 1026.5 0.0
19/11:00pm 15.7 14.9 11.7 77 2.2 N 7 9 4 5 1026.8 1026.6 0.0
19/10:30pm 15.9 15.0 11.3 74 2.5 N 7 11 4 6 1026.7 1026.5 0.0
19/10:00pm 16.8 15.2 11.5 71 2.9 NNE 11 13 6 7 1026.4 1026.2 0.0
19/09:30pm 16.7 15.4 11.4 71 2.9 NNE 9 13 5 7 1026.4 1026.2 0.0
19/09:00pm 16.8 15.5 11.3 70 3.0 NNE 9 13 5 7 1026.1 1025.9 0.0
19/08:30pm 17.3 16.1 11.6 69 3.1 NE 9 15 5 8 1025.7 1025.5 0.0
19/08:00pm 17.6 15.7 11.8 69 3.2 NE 13 17 7 9 1025.5 1025.3 0.0
19/07:30pm 17.6 16.5 11.8 69 3.2 NE 9 17 5 9 1025.2 1025.0 0.0
19/07:00pm 18.1 16.2 11.9 67 3.4 ENE 13 19 7 10 1025.1 1024.9 0.0
19/06:30pm 18.7 16.1 10.8 60 4.3 ENE 15 28 8 15 1024.8 1024.6 0.0
19/06:00pm 19.4 16.7 10.4 56 4.8 E 15 22 8 12 1024.5 1024.3 0.0
19/05:30pm 20.0 16.4 9.9 52 5.4 E 19 26 10 14 1024.4 1024.2 0.0
19/05:00pm 20.4 17.4 10.8 54 5.2 E 17 26 9 14 1024.5 1024.3 0.0
19/04:30pm 20.8 17.8 10.6 52 5.6 E 17 28 9 15 1024.5 1024.3 0.0
19/04:00pm 21.2 17.8 10.4 50 5.9 ESE 19 24 10 13 1024.5 1024.3 0.0
19/03:30pm 21.8 19.0 11.2 51 5.9 ESE 17 22 9 12 1024.8 1024.6 0.0
19/03:00pm 21.6 18.2 10.7 50 6.0 ESE 19 24 10 13 1025.1 1024.9 0.0
19/02:30pm 21.5 18.0 10.3 49 6.1 ESE 19 24 10 13 1025.6 1025.4 0.0
19/02:00pm 22.2 18.7 11.0 49 6.2 ESE 20 28 11 15 1025.9 1025.7 0.0
19/01:30pm 23.0 20.4 12.0 50 6.2 SE 17 24 9 13 1026.4 1026.2 0.0
19/01:00pm 22.8 19.6 11.8 50 6.2 SE 20 26 11 14 1026.8 1026.6 0.0
19/12:30pm 22.3 19.4 12.3 53 5.7 SE 19 24 10 13 1027.3 1027.2 0.0
19/12:00pm 22.0 18.8 11.4 51 5.9 SE 19 24 10 13 1027.7 1027.6 0.0
19/11:30am 22.2 19.8 12.7 55 5.4 SE 17 26 9 14 1027.9 1027.8 0.0
19/11:00am 22.0 19.9 13.6 59 4.8 S 17 22 9 12 1028.2 1028.1 0.0
19/10:30am 21.8 20.0 13.4 59 4.8 SSE 15 20 8 11 1028.5 1028.4 0.0
19/10:00am 21.5 19.7 13.4 60 4.6 S 15 20 8 11 1028.5 1028.4 0.0
19/09:30am 21.7 20.8 14.8 65 4.1 S 13 20 7 11 1028.6 1028.5 0.0
19/09:00am 20.2 18.9 13.6 66 3.8 S 13 17 7 9 1028.4 1028.3 0.0
19/08:30am 20.0 18.7 13.7 67 3.6 SSW 13 20 7 11 1028.1 1028.0 0.0
19/08:00am 18.1 17.6 15.0 82 1.8 SW 11 15 6 8 1028.0 1027.9 0.0
19/07:30am 16.0 15.9 15.0 94 0.6 WSW 9 13 5 7 1027.6 1027.5 0.0
19/07:00am 15.4 14.9 14.8 96 0.3 SW 11 17 6 9 1027.3 1027.2 0.0
19/06:30am 15.1 14.1 14.6 97 0.3 WSW 13 17 7 9 1027.1 1026.9 0.0
19/06:00am 14.9 14.2 14.4 97 0.3 WSW 11 17 6 9 1027.0 1026.8 0.0
19/05:30am 15.1 14.5 14.6 97 0.3 W 11 15 6 8 1026.7 1026.5 0.0
19/05:00am 16.0 16.3 14.5 91 0.9 SSW 6 9 3 5 1026.5 1026.3 0.0
19/04:30am 16.1 16.9 13.8 86 1.3 S 2 7 1 4 1026.3 1026.1 0.0
19/04:00am 15.8 16.0 14.8 94 0.6 SSW 7 11 4 6 1026.5 1026.3 0.0
19/03:30am 15.8 15.5 14.3 91 0.9 WSW 9 11 5 6 1026.4 1026.2 0.0
19/03:00am 15.9 15.3 13.6 86 1.3 W 9 13 5 7 1026.5 1026.3 0.0
19/02:30am 17.3 17.1 13.0 76 2.4 SE 6 7 3 4 1026.8 1026.6 0.0
19/02:00am 17.5 15.5 12.6 73 2.7 SE 15 22 8 12 1027.1 1026.9 0.0
19/01:30am 17.9 16.5 12.1 69 3.2 SE 11 17 6 9 1027.1 1026.9 0.0
19/01:00am 17.8 16.3 11.8 68 3.3 SE 11 15 6 8 1027.4 1027.3 0.0
19/12:30am 18.2 16.0 12.0 67 3.4 SE 15 20 8 11 1027.8 1027.7 0.0
19/12:00am 18.2 16.0 12.0 67 3.4 SE 15 20 8 11 1027.9 1027.8 0.0
 
Date/Time
EDT
Temp
°C
App
Temp
°C
Dew
Point
Rel
Hum
%
Delta-T
°C
Wind Press
QNH
hPa
Press
MSL
hPa
Rain
since 9 am
mm
Dir
 
Spd
km/h
Gust
km/h
Spd
kts
Gust
kts
18/11:30pm 18.3 15.7 12.1 67 3.4 SE 17 24 9 13 1028.0 1027.9 0.0
18/11:00pm 18.4 15.3 11.7 65 3.7 SE 19 24 10 13 1028.1 1028.0 0.0
18/10:30pm 18.5 16.1 12.5 68 3.4 SE 17 24 9 13 1028.1 1028.0 0.0
18/10:00pm 18.3 15.5 12.5 69 3.2 SSE 19 26 10 14 1028.0 1027.9 0.0
18/09:30pm 18.1 16.3 13.2 73 2.8 SSE 15 22 8 12 1027.8 1027.7 0.0
18/09:00pm 17.5 17.4 15.0 85 1.4 SSE 9 13 5 7 1027.7 1027.6 0.0
18/08:30pm 16.8 15.8 14.6 87 1.3 SSE 13 17 7 9 1027.6 1027.5 0.0
18/08:00pm 16.7 15.4 14.9 89 1.0 SSE 15 20 8 11 1027.1 1026.9 0.0
18/07:30pm 16.5 15.0 14.3 87 1.3 S 15 20 8 11 1027.0 1026.8 0.0
18/07:00pm 17.0 15.3 13.5 80 2.0 SSE 15 22 8 12 1026.6 1026.4 0.0
18/06:30pm 17.5 14.4 13.4 77 2.3 SSE 22 30 12 16 1026.3 1026.1 0.0
18/06:00pm 18.4 14.3 13.7 74 2.7 S 28 37 15 20 1025.9 1025.7 0.0
18/05:30pm 19.0 15.8 14.3 74 2.7 S 24 33 13 18 1025.7 1025.5 0.0
18/05:00pm 19.7 16.5 14.3 71 3.1 S 24 32 13 17 1025.5 1025.3 0.0
18/04:30pm 20.0 16.0 14.1 69 3.4 S 28 37 15 20 1025.4 1025.2 0.0
18/04:00pm 19.9 16.0 14.5 71 3.1 S 28 39 15 21 1025.5 1025.3 0.0
18/03:30pm 20.4 17.1 15.0 71 3.2 S 26 39 14 21 1025.7 1025.5 0.0
18/03:00pm 20.4 17.3 15.6 74 2.8 S 26 35 14 19 1025.9 1025.7 0.0

Other Formats:

Comma delimited format used in spreadsheet applications
http://www.bom.gov.au/fwo/IDN60801/IDN60801.94598.axf

JavaScript Object Notation format (JSON) in row-major order
http://www.bom.gov.au/fwo/IDN60801/IDN60801.94598.json